createdAt,value
2019-05-26T00:00:22.796Z,26.9
2019-05-26T00:01:25.241Z,26.9
2019-05-26T00:02:27.671Z,26.9
2019-05-26T00:03:30.114Z,26.9
2019-05-26T00:04:32.536Z,26.9
2019-05-26T00:05:34.962Z,26.9
2019-05-26T00:06:36.542Z,26.9
2019-05-26T00:07:38.967Z,26.9
2019-05-26T00:08:41.128Z,26.9
2019-05-26T00:09:43.272Z,26.9
2019-05-26T00:10:45.140Z,26.9
2019-05-26T00:11:48.187Z,26.9
2019-05-26T00:12:50.328Z,26.9
2019-05-26T00:13:51.929Z,26.9
2019-05-26T00:14:54.076Z,26.9
2019-05-26T00:15:56.227Z,26.9
2019-05-26T00:16:58.667Z,27
2019-05-26T00:18:01.106Z,27
2019-05-26T00:19:03.537Z,26.9
2019-05-26T00:20:05.986Z,27
2019-05-26T00:21:07.895Z,27
2019-05-26T00:22:10.038Z,27
2019-05-26T00:23:12.479Z,27
2019-05-26T00:24:14.911Z,27
2019-05-26T00:25:17.553Z,27
2019-05-26T00:26:19.716Z,27
2019-05-26T00:27:21.857Z,27
2019-05-26T00:28:24.026Z,27
2019-05-26T00:29:26.177Z,27
2019-05-26T00:30:28.070Z,27
2019-05-26T00:31:30.225Z,27
2019-05-26T00:32:32.681Z,27
2019-05-26T00:33:35.125Z,27
2019-05-26T00:34:37.275Z,27
2019-05-26T00:35:39.421Z,27
2019-05-26T00:36:41.839Z,27
2019-05-26T00:38:49.245Z,27
2019-05-26T00:39:50.841Z,27
2019-05-26T00:40:53.341Z,27
2019-05-26T00:41:55.761Z,27
2019-05-26T00:42:58.203Z,27
2019-05-26T00:44:00.363Z,27
2019-05-26T00:45:02.808Z,27
2019-05-26T00:46:05.237Z,27
2019-05-26T00:47:07.692Z,27
2019-05-26T00:48:10.293Z,27
2019-05-26T00:49:12.750Z,27
2019-05-26T00:50:14.597Z,27
2019-05-26T00:51:16.475Z,27
2019-05-26T00:52:18.383Z,27
2019-05-26T00:53:20.815Z,27
2019-05-26T00:54:23.258Z,27
2019-05-26T00:55:25.126Z,27
2019-05-26T00:56:27.543Z,27
2019-05-26T00:57:29.975Z,27
2019-05-26T00:58:32.408Z,27
2019-05-26T00:59:34.841Z,27
2019-05-26T01:00:37.268Z,27
2019-05-26T01:01:39.153Z,27.1
2019-05-26T01:02:41.577Z,27.1
2019-05-26T01:03:44.028Z,27
2019-05-26T01:04:46.462Z,27.1
2019-05-26T01:05:48.881Z,27
2019-05-26T01:06:50.758Z,27
2019-05-26T01:08:57.897Z,27
2019-05-26T01:10:00.327Z,27
2019-05-26T01:11:02.422Z,27
2019-05-26T01:12:04.859Z,27
2019-05-26T01:13:07.292Z,27
2019-05-26T01:14:09.716Z,27
2019-05-26T01:15:11.607Z,27
2019-05-26T01:16:13.775Z,27
2019-05-26T01:17:15.964Z,27
2019-05-26T01:18:18.375Z,27
2019-05-26T01:19:21.448Z,27
2019-05-26T01:20:23.869Z,27.1
2019-05-26T01:21:25.791Z,27.1
2019-05-26T01:22:27.944Z,27.1
2019-05-26T01:23:29.533Z,27.1
2019-05-26T01:24:31.968Z,27.1
2019-05-26T01:25:33.843Z,27.1
2019-05-26T01:26:35.978Z,27.1
2019-05-26T01:27:38.138Z,27.1
2019-05-26T01:28:40.755Z,27.1
2019-05-26T01:29:42.930Z,27.1
2019-05-26T01:30:45.354Z,27.1
2019-05-26T01:31:47.525Z,27.1
2019-05-26T01:32:49.963Z,27.1
2019-05-26T01:33:51.857Z,27.1
2019-05-26T01:34:54.276Z,27.1
2019-05-26T01:35:56.707Z,27.1
2019-05-26T01:36:58.858Z,27.1
2019-05-26T01:38:01.296Z,27
2019-05-26T01:39:03.455Z,27
2019-05-26T01:40:05.896Z,27
2019-05-26T01:41:08.050Z,27
2019-05-26T01:42:10.487Z,27
2019-05-26T01:43:12.690Z,27
2019-05-26T01:44:15.105Z,27
2019-05-26T01:45:17.567Z,27
2019-05-26T01:46:19.728Z,27
2019-05-26T01:47:22.509Z,27
2019-05-26T01:48:24.655Z,27
2019-05-26T01:49:26.878Z,27
2019-05-26T01:50:29.329Z,27
2019-05-26T01:51:31.776Z,27
2019-05-26T01:52:33.987Z,27
2019-05-26T01:53:35.917Z,27
2019-05-26T01:55:43.356Z,27.1
2019-05-26T01:56:45.518Z,27.1
2019-05-26T01:57:47.957Z,27.1
2019-05-26T01:58:50.389Z,27.1
2019-05-26T01:59:52.814Z,27.1
2019-05-26T02:00:54.686Z,27.1
2019-05-26T02:03:02.103Z,27.1
2019-05-26T02:04:04.267Z,27.1
2019-05-26T02:05:06.478Z,27.1
2019-05-26T02:06:08.647Z,27.1
2019-05-26T02:07:11.078Z,27.1
2019-05-26T02:08:13.503Z,27.1
2019-05-26T02:09:16.346Z,27.1
2019-05-26T02:10:18.767Z,27
2019-05-26T02:11:20.907Z,27
2019-05-26T02:12:23.059Z,27
2019-05-26T02:13:25.225Z,27
2019-05-26T02:14:27.653Z,27
2019-05-26T02:15:29.809Z,27
2019-05-26T02:16:32.240Z,27
2019-05-26T02:17:34.688Z,27
2019-05-26T02:18:37.112Z,27
2019-05-26T02:19:39.544Z,27
2019-05-26T02:20:41.971Z,27
2019-05-26T02:21:44.133Z,27
2019-05-26T02:22:46.287Z,27
2019-05-26T02:23:48.705Z,27.1
2019-05-26T02:24:50.859Z,27.1
2019-05-26T02:25:53.077Z,27.1
2019-05-26T02:26:55.520Z,27.1
2019-05-26T02:27:57.675Z,27.1
2019-05-26T02:29:00.712Z,27.1
2019-05-26T02:30:03.138Z,27.1
2019-05-26T02:31:05.559Z,27.1
2019-05-26T02:32:07.975Z,27.1
2019-05-26T02:33:10.410Z,27.1
2019-05-26T02:34:12.651Z,27.1
2019-05-26T02:35:14.800Z,27.1
2019-05-26T02:36:16.980Z,27
2019-05-26T02:37:19.413Z,27
2019-05-26T02:39:26.521Z,27
2019-05-26T02:40:28.947Z,27
2019-05-26T02:41:31.373Z,27
2019-05-26T02:42:33.847Z,27
2019-05-26T02:43:36.260Z,27
2019-05-26T02:44:38.691Z,27
2019-05-26T02:45:41.116Z,27
2019-05-26T02:46:43.570Z,27
2019-05-26T02:47:45.995Z,27
2019-05-26T02:48:48.196Z,27
2019-05-26T02:49:50.614Z,27
2019-05-26T02:50:53.053Z,27
2019-05-26T02:51:55.222Z,27
2019-05-26T02:52:57.659Z,27
2019-05-26T02:53:59.257Z,27
2019-05-26T02:55:01.166Z,27
2019-05-26T02:56:03.330Z,27.1
2019-05-26T02:57:05.760Z,27.1
2019-05-26T02:58:08.179Z,27.1
2019-05-26T02:59:10.597Z,27.1
2019-05-26T03:00:13.034Z,27.1
2019-05-26T03:01:15.200Z,27
2019-05-26T03:02:17.645Z,27
2019-05-26T03:03:20.076Z,27
2019-05-26T03:04:22.020Z,27
2019-05-26T03:05:24.434Z,27
2019-05-26T03:06:26.573Z,27
2019-05-26T03:07:29.009Z,26.9
2019-05-26T03:08:31.444Z,26.9
2019-05-26T03:09:33.891Z,26.9
2019-05-26T03:10:36.039Z,26.9
2019-05-26T03:11:38.471Z,26.9
2019-05-26T03:12:40.611Z,26.8
2019-05-26T03:13:43.057Z,26.8
2019-05-26T03:14:45.208Z,26.8
2019-05-26T03:15:47.366Z,26.8
2019-05-26T03:16:49.857Z,26.8
2019-05-26T03:17:52.289Z,26.8
2019-05-26T03:18:54.721Z,26.8
2019-05-26T03:19:56.884Z,26.8
2019-05-26T03:20:59.079Z,26.7
2019-05-26T03:22:01.513Z,26.7
2019-05-26T03:23:03.950Z,26.7
2019-05-26T03:24:06.121Z,26.7
2019-05-26T03:25:08.545Z,26.7
2019-05-26T03:26:10.718Z,26.7
2019-05-26T03:27:12.858Z,26.7
2019-05-26T03:28:15.297Z,26.7
2019-05-26T03:29:17.824Z,26.7
2019-05-26T03:30:19.978Z,26.6
2019-05-26T03:31:22.781Z,26.6
2019-05-26T03:32:25.237Z,26.6
2019-05-26T03:33:27.416Z,26.6
2019-05-26T03:34:29.889Z,26.6
2019-05-26T03:35:32.321Z,26.6
2019-05-26T03:36:34.570Z,26.6
2019-05-26T03:37:36.759Z,26.6
2019-05-26T03:38:39.183Z,26.6
2019-05-26T03:40:46.042Z,26.6
2019-05-26T03:41:48.477Z,26.6
2019-05-26T03:42:50.630Z,26.6
2019-05-26T03:43:53.059Z,26.6
2019-05-26T03:44:55.222Z,26.6
2019-05-26T03:45:57.645Z,26.6
2019-05-26T03:46:59.817Z,26.6
2019-05-26T03:48:02.237Z,26.6
2019-05-26T03:49:04.401Z,26.6
2019-05-26T03:50:06.566Z,26.6
2019-05-26T03:51:09.003Z,26.6
2019-05-26T03:52:11.572Z,26.6
2019-05-26T03:53:14.008Z,26.6
2019-05-26T03:54:16.443Z,26.6
2019-05-26T03:55:18.323Z,26.6
2019-05-26T03:56:20.526Z,26.6
2019-05-26T03:57:22.958Z,26.6
2019-05-26T03:58:25.388Z,26.6
2019-05-26T03:59:27.553Z,26.6
2019-05-26T04:00:29.990Z,26.5
2019-05-26T04:01:32.764Z,26.5
2019-05-26T04:02:35.194Z,26.5
2019-05-26T04:03:37.621Z,26.5
2019-05-26T04:04:40.061Z,26.5
2019-05-26T04:05:42.235Z,26.5
2019-05-26T04:06:44.104Z,26.5
2019-05-26T04:07:46.533Z,26.5
2019-05-26T04:08:48.964Z,26.5
2019-05-26T04:10:56.119Z,26.5
2019-05-26T04:11:58.536Z,26.5
2019-05-26T04:13:00.691Z,26.5
2019-05-26T04:14:02.930Z,26.5
2019-05-26T04:15:05.087Z,26.5
2019-05-26T04:16:07.522Z,26.5
2019-05-26T04:17:09.945Z,26.5
2019-05-26T04:18:12.084Z,26.5
2019-05-26T04:19:14.619Z,26.5
2019-05-26T04:20:16.792Z,26.5
2019-05-26T04:21:19.228Z,26.5
2019-05-26T04:22:21.655Z,26.5
2019-05-26T04:23:23.806Z,26.5
2019-05-26T04:24:25.961Z,26.5
2019-05-26T04:25:28.386Z,26.5
2019-05-26T04:26:30.545Z,26.5
2019-05-26T04:27:32.975Z,26.5
2019-05-26T04:28:35.394Z,26.5
2019-05-26T04:29:37.260Z,26.5
2019-05-26T04:30:39.421Z,26.5
2019-05-26T04:31:41.582Z,26.5
2019-05-26T04:32:43.529Z,26.5
2019-05-26T04:33:45.964Z,26.5
2019-05-26T04:34:48.391Z,26.5
2019-05-26T04:35:50.554Z,26.5
2019-05-26T04:36:53.021Z,26.5
2019-05-26T04:37:55.175Z,26.5
2019-05-26T04:38:57.600Z,26.5
2019-05-26T04:40:00.148Z,26.5
2019-05-26T04:41:02.316Z,26.5
2019-05-26T04:42:04.746Z,26.5
2019-05-26T04:43:06.910Z,26.5
2019-05-26T04:44:09.340Z,26.5
2019-05-26T04:45:11.225Z,26.5
2019-05-26T04:46:13.392Z,26.5
2019-05-26T04:47:15.537Z,26.5
2019-05-26T04:48:17.981Z,26.5
2019-05-26T04:49:20.421Z,26.5
2019-05-26T04:50:22.846Z,26.5
2019-05-26T04:51:25.068Z,26.5
2019-05-26T04:52:27.188Z,26.4
2019-05-26T04:53:29.078Z,26.5
2019-05-26T04:54:31.502Z,26.4
2019-05-26T04:55:33.658Z,26.5
2019-05-26T04:56:36.112Z,26.5
2019-05-26T04:57:38.571Z,26.4
2019-05-26T04:58:40.998Z,26.5
2019-05-26T04:59:43.199Z,26.4
2019-05-26T05:00:45.663Z,26.4
2019-05-26T05:01:48.098Z,26.4
2019-05-26T05:02:50.526Z,26.4
2019-05-26T05:03:52.420Z,26.4
2019-05-26T05:04:54.551Z,26.4
2019-05-26T05:05:56.701Z,26.4
2019-05-26T05:06:58.881Z,26.4
2019-05-26T05:08:01.324Z,26.4
2019-05-26T05:09:03.207Z,26.4
2019-05-26T05:10:05.651Z,26.4
2019-05-26T05:11:08.083Z,26.4
2019-05-26T05:12:10.560Z,26.4
2019-05-26T05:13:12.516Z,26.4
2019-05-26T05:14:14.940Z,26.4
2019-05-26T05:15:17.107Z,26.4
2019-05-26T05:16:19.561Z,26.4
2019-05-26T05:17:21.713Z,26.4
2019-05-26T05:18:23.893Z,26.4
2019-05-26T05:19:26.036Z,26.4
2019-05-26T05:20:28.192Z,26.4
2019-05-26T05:21:30.356Z,26.4
2019-05-26T05:22:32.796Z,26.4
2019-05-26T05:23:34.669Z,26.4
2019-05-26T05:24:37.143Z,26.4
2019-05-26T05:25:39.474Z,26.4
2019-05-26T05:26:41.894Z,26.4
2019-05-26T05:27:44.332Z,26.4
2019-05-26T05:28:46.514Z,26.4
2019-05-26T05:29:48.382Z,26.4
2019-05-26T05:30:50.809Z,26.4
2019-05-26T05:31:53.270Z,26.4
2019-05-26T05:32:55.765Z,26.4
2019-05-26T05:33:57.897Z,26.4
2019-05-26T05:35:00.642Z,26.4
2019-05-26T05:36:03.080Z,26.4
2019-05-26T05:37:05.253Z,26.4
2019-05-26T05:38:08.246Z,26.4
2019-05-26T05:39:10.667Z,26.4
2019-05-26T05:40:12.832Z,26.4
2019-05-26T05:41:15.263Z,26.4
2019-05-26T05:42:17.709Z,26.4
2019-05-26T05:43:19.841Z,26.4
2019-05-26T05:44:21.996Z,26.4
2019-05-26T05:45:24.451Z,26.4
2019-05-26T05:46:26.889Z,26.4
2019-05-26T05:47:29.030Z,26.4
2019-05-26T05:48:30.913Z,26.4
2019-05-26T05:49:33.332Z,26.4
2019-05-26T05:51:40.493Z,26.4
2019-05-26T05:52:42.912Z,26.4
2019-05-26T05:53:44.795Z,26.4
2019-05-26T05:54:46.673Z,26.4
2019-05-26T05:55:49.090Z,26.4
2019-05-26T05:56:51.235Z,26.4
2019-05-26T05:57:57.657Z,26.4
2019-05-26T05:58:59.599Z,26.4
2019-05-26T06:00:02.094Z,26.4
2019-05-26T06:01:04.293Z,26.4
2019-05-26T06:02:06.455Z,26.4
2019-05-26T06:03:08.879Z,26.4
2019-05-26T06:04:11.310Z,26.4
2019-05-26T06:05:13.441Z,26.4
2019-05-26T06:06:15.586Z,26.4
2019-05-26T06:07:17.455Z,26.4
2019-05-26T06:08:20.162Z,26.4
2019-05-26T06:09:22.581Z,26.4
2019-05-26T06:10:25.013Z,26.4
2019-05-26T06:11:27.441Z,26.4
2019-05-26T06:12:29.874Z,26.4
2019-05-26T06:13:32.306Z,26.4
2019-05-26T06:14:34.835Z,26.4
2019-05-26T06:15:37.261Z,26.4
2019-05-26T06:16:39.689Z,26.4
2019-05-26T06:17:41.576Z,26.4
2019-05-26T06:18:43.996Z,26.4
2019-05-26T06:19:46.444Z,26.4
2019-05-26T06:20:48.897Z,26.4
2019-05-26T06:21:51.531Z,26.4
2019-05-26T06:22:53.831Z,26.4
2019-05-26T06:23:56.009Z,26.4
2019-05-26T06:24:58.472Z,26.4
2019-05-26T06:26:00.930Z,26.4
2019-05-26T06:27:03.383Z,26.4
2019-05-26T06:28:05.815Z,26.3
2019-05-26T06:29:08.238Z,26.4
2019-05-26T06:30:10.441Z,26.4
2019-05-26T06:31:12.863Z,26.3
2019-05-26T06:32:16.230Z,26.3
2019-05-26T06:33:18.638Z,26.3
2019-05-26T06:34:21.072Z,26.3
2019-05-26T06:35:23.688Z,26.3
2019-05-26T06:36:26.116Z,26.3
2019-05-26T06:37:27.990Z,26.3
2019-05-26T06:38:30.434Z,26.3
2019-05-26T06:39:32.752Z,26.3
2019-05-26T06:40:34.671Z,26.3
2019-05-26T06:41:37.120Z,26.3
2019-05-26T06:42:38.704Z,26.4
2019-05-26T06:43:40.859Z,26.3
2019-05-26T06:45:48.277Z,26.4
2019-05-26T06:46:50.708Z,26.4
2019-05-26T06:47:53.130Z,26.4
2019-05-26T06:48:55.562Z,26.4
2019-05-26T06:49:58.060Z,26.4
2019-05-26T06:51:01.085Z,26.4
2019-05-26T06:52:03.503Z,26.4
2019-05-26T06:53:05.871Z,26.4
2019-05-26T06:54:08.033Z,26.4
2019-05-26T06:55:10.516Z,26.4
2019-05-26T06:56:12.949Z,26.4
2019-05-26T06:57:15.387Z,26.4
2019-05-26T06:58:17.551Z,26.4
2019-05-26T06:59:19.988Z,26.4
2019-05-26T07:00:22.331Z,26.4
2019-05-26T07:01:24.774Z,26.4
2019-05-26T07:02:27.207Z,26.4
2019-05-26T07:03:29.643Z,26.4
2019-05-26T07:04:31.794Z,26.4
2019-05-26T07:05:34.223Z,26.4
2019-05-26T07:06:36.665Z,26.4
2019-05-26T07:07:39.107Z,26.4
2019-05-26T07:08:40.988Z,26.4
2019-05-26T07:09:43.577Z,26.4
2019-05-26T07:10:45.793Z,26.4
2019-05-26T07:12:53.212Z,26.4
2019-05-26T07:13:55.651Z,26.4
2019-05-26T07:14:57.811Z,26.4
2019-05-26T07:15:59.974Z,26.4
2019-05-26T07:17:02.140Z,26.4
2019-05-26T07:18:04.573Z,26.4
2019-05-26T07:19:07.575Z,26.4
2019-05-26T07:20:10.351Z,26.4
2019-05-26T07:21:12.503Z,26.4
2019-05-26T07:22:14.960Z,26.4
2019-05-26T07:23:17.381Z,26.4
2019-05-26T07:24:19.532Z,26.4
2019-05-26T07:25:21.696Z,26.4
2019-05-26T07:26:24.125Z,26.4
2019-05-26T07:27:26.554Z,26.4
2019-05-26T07:28:28.716Z,26.4
2019-05-26T07:29:31.173Z,26.4
2019-05-26T07:30:33.623Z,26.4
2019-05-26T07:31:35.775Z,26.4
2019-05-26T07:32:37.953Z,26.4
2019-05-26T07:33:40.379Z,26.4
2019-05-26T07:34:42.819Z,26.4
2019-05-26T07:35:45.257Z,26.4
2019-05-26T07:36:52.152Z,26.4
2019-05-26T07:37:54.043Z,26.4
2019-05-26T07:38:56.498Z,26.4
2019-05-26T07:39:58.954Z,26.4
2019-05-26T07:41:01.183Z,26.4
2019-05-26T07:43:08.629Z,26.4
2019-05-26T07:44:11.164Z,26.4
2019-05-26T07:45:13.313Z,26.4
2019-05-26T07:46:15.744Z,26.4
2019-05-26T07:47:18.171Z,26.4
2019-05-26T07:48:20.039Z,26.4
2019-05-26T07:49:22.175Z,26.4
2019-05-26T07:50:24.601Z,26.4
2019-05-26T07:51:27.049Z,26.4
2019-05-26T07:52:29.491Z,26.4
2019-05-26T07:53:31.921Z,26.4
2019-05-26T07:54:34.369Z,26.4
2019-05-26T07:55:36.825Z,26.4
2019-05-26T07:56:39.255Z,26.4
2019-05-26T07:57:41.787Z,26.4
2019-05-26T07:58:43.935Z,26.4
2019-05-26T07:59:46.361Z,26.4
2019-05-26T08:00:48.787Z,26.4
2019-05-26T08:01:51.234Z,26.4
2019-05-26T08:02:53.818Z,26.4
2019-05-26T08:03:56.252Z,26.4
2019-05-26T08:04:58.413Z,26.4
2019-05-26T08:06:01.174Z,26.4
2019-05-26T08:07:03.300Z,26.4
2019-05-26T08:09:10.421Z,26.4
2019-05-26T08:10:12.710Z,26.4
2019-05-26T08:11:14.949Z,26.4
2019-05-26T08:13:22.493Z,26.4
2019-05-26T08:14:24.745Z,26.4
2019-05-26T08:15:27.215Z,26.4
2019-05-26T08:16:29.677Z,26.4
2019-05-26T08:17:32.151Z,26.4
2019-05-26T08:18:34.585Z,26.4
2019-05-26T08:19:37.603Z,26.4
2019-05-26T08:20:39.612Z,26.4
2019-05-26T08:21:41.855Z,26.4
2019-05-26T08:22:44.344Z,26.4
2019-05-26T08:23:46.782Z,26.4
2019-05-26T08:24:48.959Z,26.4
2019-05-26T08:25:51.613Z,26.4
2019-05-26T08:26:54.603Z,26.4
2019-05-26T08:27:56.742Z,26.4
2019-05-26T08:28:59.107Z,26.4
2019-05-26T08:30:01.252Z,26.4
2019-05-26T08:31:03.171Z,26.4
2019-05-26T08:32:05.336Z,26.4
2019-05-26T08:33:07.764Z,26.4
2019-05-26T08:34:10.192Z,26.4
2019-05-26T08:35:12.349Z,26.4
2019-05-26T08:36:14.973Z,26.4
2019-05-26T08:37:17.403Z,26.4
2019-05-26T08:38:19.837Z,26.4
2019-05-26T08:39:22.327Z,26.4
2019-05-26T08:40:24.480Z,26.4
2019-05-26T08:41:26.906Z,26.4
2019-05-26T08:43:34.221Z,26.4
2019-05-26T08:44:36.695Z,26.4
2019-05-26T08:45:38.017Z,26.4
2019-05-26T08:46:40.195Z,26.4
2019-05-26T08:47:42.905Z,26.4
2019-05-26T08:48:45.530Z,26.4
2019-05-26T08:49:47.714Z,26.4
2019-05-26T08:50:50.749Z,26.4
2019-05-26T08:51:53.797Z,26.3
2019-05-26T08:52:56.219Z,26.4
2019-05-26T08:53:58.677Z,26.4
2019-05-26T08:55:00.856Z,26.4
2019-05-26T08:56:03.302Z,26.3
2019-05-26T08:57:05.207Z,26.4
2019-05-26T08:58:07.634Z,26.4
2019-05-26T08:59:10.077Z,26.3
2019-05-26T09:00:12.564Z,26.4
2019-05-26T09:01:14.712Z,26.3
2019-05-26T09:02:16.892Z,26.4
2019-05-26T09:03:19.369Z,26.3
2019-05-26T09:04:21.855Z,26.4
2019-05-26T09:05:23.805Z,26.4
2019-05-26T09:06:25.983Z,26.4
2019-05-26T09:07:28.432Z,26.4
2019-05-26T09:08:30.041Z,26.4
2019-05-26T09:09:32.466Z,26.4
2019-05-26T09:10:34.632Z,26.4
2019-05-26T09:11:36.787Z,26.4
2019-05-26T09:12:38.945Z,26.4
2019-05-26T09:13:41.405Z,26.4
2019-05-26T09:14:43.640Z,26.4
2019-05-26T09:15:46.081Z,26.4
2019-05-26T09:16:48.505Z,26.4
2019-05-26T09:17:50.380Z,26.4
2019-05-26T09:18:52.545Z,26.4
2019-05-26T09:19:54.997Z,26.4
2019-05-26T09:20:57.442Z,26.4
2019-05-26T09:21:59.326Z,26.4
2019-05-26T09:23:01.755Z,26.4
2019-05-26T09:24:04.258Z,26.4
2019-05-26T09:25:06.414Z,26.4
2019-05-26T09:26:08.847Z,26.4
2019-05-26T09:27:11.045Z,26.4
2019-05-26T09:28:13.475Z,26.4
2019-05-26T09:29:15.637Z,26.4
2019-05-26T09:30:17.797Z,26.4
2019-05-26T09:31:19.678Z,26.4
2019-05-26T09:32:21.845Z,26.3
2019-05-26T09:33:24.271Z,26.3
2019-05-26T09:34:26.441Z,26.3
2019-05-26T09:35:28.962Z,26.3
2019-05-26T09:36:31.383Z,26.3
2019-05-26T09:37:33.610Z,26.3
2019-05-26T09:38:36.042Z,26.3
2019-05-26T09:39:38.508Z,26.3
2019-05-26T09:40:40.768Z,26.3
2019-05-26T09:41:42.907Z,26.3
2019-05-26T09:42:45.073Z,26.3
2019-05-26T09:43:47.253Z,26.3
2019-05-26T09:44:48.966Z,26.3
2019-05-26T09:45:51.156Z,26.3
2019-05-26T09:46:53.312Z,26.3
2019-05-26T09:47:55.763Z,26.4
2019-05-26T09:50:02.907Z,26.4
2019-05-26T09:51:05.061Z,26.3
2019-05-26T09:52:07.520Z,26.3
2019-05-26T09:53:09.956Z,26.4
2019-05-26T09:54:13.295Z,26.3
2019-05-26T09:55:15.194Z,26.4
2019-05-26T09:56:17.630Z,26.4
2019-05-26T09:57:19.809Z,26.4
2019-05-26T09:58:21.975Z,26.4
2019-05-26T09:59:24.407Z,26.4
2019-05-26T10:00:26.843Z,26.4
2019-05-26T10:01:28.744Z,26.4
2019-05-26T10:02:31.195Z,26.3
2019-05-26T10:03:33.617Z,26.4
2019-05-26T10:04:36.043Z,26.4
2019-05-26T10:05:38.195Z,26.3
2019-05-26T10:06:40.655Z,26.4
2019-05-26T10:07:42.531Z,26.4
2019-05-26T10:08:44.695Z,26.4
2019-05-26T10:09:47.142Z,26.4
2019-05-26T10:10:49.325Z,26.4
2019-05-26T10:11:51.515Z,26.4
2019-05-26T10:12:53.989Z,26.4
2019-05-26T10:13:56.156Z,26.4
2019-05-26T10:14:58.580Z,26.4
2019-05-26T10:16:00.756Z,26.4
2019-05-26T10:17:03.183Z,26.4
2019-05-26T10:18:05.393Z,26.4
2019-05-26T10:19:07.829Z,26.4
2019-05-26T10:20:10.205Z,26.4
2019-05-26T10:21:12.657Z,26.4
2019-05-26T10:22:15.125Z,26.4
2019-05-26T10:23:17.883Z,26.4
2019-05-26T10:24:20.038Z,26.4
2019-05-26T10:25:21.921Z,26.4
2019-05-26T10:26:24.263Z,26.4
2019-05-26T10:27:26.418Z,26.4
2019-05-26T10:28:28.580Z,26.4
2019-05-26T10:29:31.601Z,26.4
2019-05-26T10:30:34.205Z,26.4
2019-05-26T10:31:36.361Z,26.4
2019-05-26T10:32:38.533Z,26.4
2019-05-26T10:33:40.969Z,26.4
2019-05-26T10:34:43.412Z,26.3
2019-05-26T10:35:45.584Z,26.3
2019-05-26T10:36:48.006Z,26.3
2019-05-26T10:37:51.055Z,26.3
2019-05-26T10:38:53.474Z,26.3
2019-05-26T10:39:56.085Z,26.3
2019-05-26T10:40:58.229Z,26.3
2019-05-26T10:42:00.591Z,26.4
2019-05-26T10:43:03.088Z,26.3
2019-05-26T10:44:05.250Z,26.3
2019-05-26T10:45:07.674Z,26.4
2019-05-26T10:46:10.889Z,26.3
2019-05-26T10:47:13.397Z,26.3
2019-05-26T10:48:16.047Z,26.3
2019-05-26T10:49:18.767Z,26.3
2019-05-26T10:50:21.160Z,26.3
2019-05-26T10:51:23.018Z,26.3
2019-05-26T10:52:25.453Z,26.3
2019-05-26T10:53:27.896Z,26.3
2019-05-26T10:54:30.537Z,26.3
2019-05-26T10:55:33.018Z,26.3
2019-05-26T10:56:35.458Z,26.3
2019-05-26T10:57:37.885Z,26.3
2019-05-26T10:58:40.045Z,26.4
2019-05-26T10:59:42.216Z,26.3
2019-05-26T11:00:44.658Z,26.3
2019-05-26T11:01:47.083Z,26.3
2019-05-26T11:02:49.533Z,26.3
2019-05-26T11:03:51.977Z,26.3
2019-05-26T11:04:54.418Z,26.3
2019-05-26T11:05:56.886Z,26.3
2019-05-26T11:06:59.321Z,26.3
2019-05-26T11:08:01.552Z,26.3
2019-05-26T11:09:03.698Z,26.3
2019-05-26T11:10:05.877Z,26.3
2019-05-26T11:11:08.326Z,26.3
2019-05-26T11:12:10.487Z,26.3
2019-05-26T11:13:12.646Z,26.3
2019-05-26T11:14:15.084Z,26.3
2019-05-26T11:15:17.262Z,26.3
2019-05-26T11:16:19.427Z,26.3
2019-05-26T11:17:21.585Z,26.4
2019-05-26T11:18:24.013Z,26.3
2019-05-26T11:19:26.435Z,26.4
2019-05-26T11:20:28.585Z,26.4
2019-05-26T11:21:30.719Z,26.3
2019-05-26T11:22:33.196Z,26.3
2019-05-26T11:23:34.885Z,26.4
2019-05-26T11:24:37.859Z,26.3
2019-05-26T11:25:40.532Z,26.4
2019-05-26T11:26:42.977Z,26.4
2019-05-26T11:27:45.476Z,26.3
2019-05-26T11:28:47.337Z,26.4
2019-05-26T11:29:49.764Z,26.4
2019-05-26T11:30:51.955Z,26.4
2019-05-26T11:31:54.387Z,26.4
2019-05-26T11:34:02.407Z,26.4
2019-05-26T11:35:04.858Z,26.4
2019-05-26T11:36:07.304Z,26.4
2019-05-26T11:37:09.737Z,26.4
2019-05-26T11:38:11.936Z,26.4
2019-05-26T11:39:14.364Z,26.4
2019-05-26T11:40:16.995Z,26.4
2019-05-26T11:41:19.450Z,26.4
2019-05-26T11:42:21.872Z,26.4
2019-05-26T11:43:24.658Z,26.4
2019-05-26T11:44:26.568Z,26.4
2019-05-26T11:45:28.693Z,26.4
2019-05-26T11:46:31.194Z,26.4
2019-05-26T11:47:33.644Z,26.4
2019-05-26T11:49:41.552Z,26.4
2019-05-26T11:50:43.717Z,26.4
2019-05-26T11:51:46.155Z,26.4
2019-05-26T11:52:48.044Z,26.4
2019-05-26T11:53:50.204Z,26.4
2019-05-26T11:54:52.624Z,26.4
2019-05-26T11:55:54.782Z,26.4
2019-05-26T11:56:56.972Z,26.4
2019-05-26T11:57:59.249Z,26.4
2019-05-26T11:59:01.745Z,26.4
2019-05-26T12:00:04.046Z,26.4
2019-05-26T12:01:06.242Z,26.4
2019-05-26T12:02:08.690Z,26.4
2019-05-26T12:03:11.122Z,26.4
2019-05-26T12:04:13.564Z,26.4
2019-05-26T12:06:21.007Z,26.4
2019-05-26T12:07:23.383Z,26.4
2019-05-26T12:08:25.554Z,26.4
2019-05-26T12:09:28.218Z,26.4
2019-05-26T12:10:30.439Z,26.4
2019-05-26T12:11:32.874Z,26.4
2019-05-26T12:12:35.312Z,26.4
2019-05-26T12:13:37.957Z,26.4
2019-05-26T12:14:40.939Z,26.4
2019-05-26T12:15:43.458Z,26.4
2019-05-26T12:16:45.637Z,26.4
2019-05-26T12:17:48.125Z,26.4
2019-05-26T12:18:49.762Z,26.4
2019-05-26T12:19:52.433Z,26.4
2019-05-26T12:20:54.870Z,26.4
2019-05-26T12:21:57.038Z,26.4
2019-05-26T12:22:59.208Z,26.4
2019-05-26T12:24:02.416Z,26.4
2019-05-26T12:25:04.304Z,26.4
2019-05-26T12:26:06.475Z,26.4
2019-05-26T12:27:08.399Z,26.4
2019-05-26T12:28:11.382Z,26.3
2019-05-26T12:29:13.294Z,26.3
2019-05-26T12:30:15.456Z,26.3
2019-05-26T12:31:17.884Z,26.3
2019-05-26T12:32:20.292Z,26.3
2019-05-26T12:33:22.178Z,26.3
2019-05-26T12:34:24.334Z,26.3
2019-05-26T12:35:26.942Z,26.3
2019-05-26T12:36:29.377Z,26.3
2019-05-26T12:37:31.835Z,26.3
2019-05-26T12:38:34.032Z,26.3
2019-05-26T12:39:36.654Z,26.3
2019-05-26T12:40:39.139Z,26.3
2019-05-26T12:41:41.671Z,26.3
2019-05-26T12:42:43.878Z,26.3
2019-05-26T12:43:46.364Z,26.3
2019-05-26T12:45:53.576Z,26.3
2019-05-26T12:46:55.781Z,26.3
2019-05-26T12:47:58.264Z,26.3
2019-05-26T12:49:00.709Z,26.3
2019-05-26T12:50:03.766Z,26.3
2019-05-26T12:51:06.186Z,26.3
2019-05-26T12:52:08.355Z,26.3
2019-05-26T12:53:10.858Z,26.3
2019-05-26T12:54:13.013Z,26.3
2019-05-26T12:55:15.448Z,26.3
2019-05-26T12:56:17.874Z,26.3
2019-05-26T12:57:20.043Z,26.3
2019-05-26T12:58:22.207Z,26.3
2019-05-26T12:59:24.635Z,26.3
2019-05-26T13:00:27.060Z,26.3
2019-05-26T13:01:29.708Z,26.3
2019-05-26T13:02:32.535Z,26.3
2019-05-26T13:03:34.971Z,26.3
2019-05-26T13:04:37.405Z,26.3
2019-05-26T13:05:39.835Z,26.3
2019-05-26T13:06:41.984Z,26.3
2019-05-26T13:07:44.398Z,26.3
2019-05-26T13:08:46.573Z,26.3
2019-05-26T13:09:48.739Z,26.3
2019-05-26T13:10:51.172Z,26.3
2019-05-26T13:11:53.345Z,26.3
2019-05-26T13:12:55.775Z,26.3
2019-05-26T13:13:59.113Z,26.3
2019-05-26T13:16:06.801Z,26.3
2019-05-26T13:17:09.328Z,26.3
2019-05-26T13:18:11.753Z,26.3
2019-05-26T13:19:14.025Z,26.3
2019-05-26T13:20:16.454Z,26.3
2019-05-26T13:21:18.892Z,26.3
2019-05-26T13:22:21.325Z,26.3
2019-05-26T13:23:23.494Z,26.3
2019-05-26T13:24:26.388Z,26.3
2019-05-26T13:25:28.568Z,26.3
2019-05-26T13:26:31.306Z,26.3
2019-05-26T13:27:33.724Z,26.3
2019-05-26T13:28:35.902Z,26.3
2019-05-26T13:29:38.334Z,26.3
2019-05-26T13:30:40.758Z,26.3
2019-05-26T13:31:43.192Z,26.3
2019-05-26T13:32:45.976Z,26.3
2019-05-26T13:33:48.411Z,26.3
2019-05-26T13:34:50.838Z,26.3
2019-05-26T13:35:53.003Z,26.3
2019-05-26T13:36:55.040Z,26.3
2019-05-26T13:37:57.473Z,26.3
2019-05-26T13:39:00.218Z,26.3
2019-05-26T13:40:02.157Z,26.3
2019-05-26T13:41:04.414Z,26.3
2019-05-26T13:42:06.294Z,26.3
2019-05-26T13:43:08.183Z,26.3
2019-05-26T13:44:10.616Z,26.3
2019-05-26T13:46:18.034Z,26.4
2019-05-26T13:48:25.558Z,26.4
2019-05-26T13:49:27.994Z,26.4
2019-05-26T13:50:31.074Z,26.4
2019-05-26T13:51:33.505Z,26.4
2019-05-26T13:52:35.765Z,26.4
2019-05-26T13:53:37.922Z,26.4
2019-05-26T13:54:40.128Z,26.4
2019-05-26T13:55:42.548Z,26.4
2019-05-26T13:56:44.706Z,26.4
2019-05-26T13:58:52.660Z,26.4
2019-05-26T13:59:55.131Z,26.4
2019-05-26T14:00:57.100Z,26.4
2019-05-26T14:01:59.275Z,26.4
2019-05-26T14:03:01.765Z,26.4
2019-05-26T14:04:05.252Z,26.4
2019-05-26T14:05:07.694Z,26.4
2019-05-26T14:06:10.262Z,26.4
2019-05-26T14:07:12.415Z,26.4
2019-05-26T14:08:15.446Z,26.4
2019-05-26T14:09:17.579Z,26.4
2019-05-26T14:10:20.296Z,26.4
2019-05-26T14:11:22.615Z,26.4
2019-05-26T14:12:25.092Z,26.4
2019-05-26T14:13:27.523Z,26.4
2019-05-26T14:14:29.950Z,26.4
2019-05-26T14:16:37.106Z,26.4
2019-05-26T14:17:39.777Z,26.4
2019-05-26T14:18:42.204Z,26.4
2019-05-26T14:19:44.368Z,26.4
2019-05-26T14:20:46.799Z,26.4
2019-05-26T14:21:48.936Z,26.4
2019-05-26T14:22:51.389Z,26.4